Time;durP1;ratioP1;P1;durP2;ratioP2;P2;SDS_P1;SDS_P2;PMS_P1;PMS_P2;Temp;Humidity;BMP_temperature;BMP_pressure;BME280_temperature;BME280_humidity;BME280_pressure;Samples;Min_cycle;Max_cycle;Signal;HPM_P1;HPM_P2
2023/08/31 00:00:31;;;;;;;2.00;1.20;;;;;;;13.53;100.00;100832.38;5095045;28;20326;-74
2023/08/31 00:02:57;;;;;;;3.03;1.10;;;;;;;13.53;100.00;100839.41;5095307;28;20050;-74
2023/08/31 00:05:24;;;;;;;1.92;1.20;;;;;;;13.54;100.00;100843.75;5094995;28;20290;-74
2023/08/31 00:07:50;;;;;;;2.15;1.20;;;;;;;13.54;100.00;100859.56;5095741;28;20039;-74
2023/08/31 00:10:17;;;;;;;2.33;1.00;;;;;;;13.54;100.00;100859.56;5095667;28;20044;-74
2023/08/31 00:12:42;;;;;;;1.95;1.27;;;;;;;13.55;100.00;100855.97;5095722;28;20404;-74
2023/08/31 00:15:09;;;;;;;2.10;1.00;;;;;;;13.55;100.00;100843.69;5095703;28;20035;-75
2023/08/31 00:17:34;;;;;;;1.88;1.15;;;;;;;13.55;100.00;100835.78;5095014;28;20050;-75
2023/08/31 00:20:02;;;;;;;2.53;1.42;;;;;;;13.56;100.00;100837.47;5095324;28;20057;-75
2023/08/31 00:22:28;;;;;;;1.17;0.85;;;;;;;13.56;100.00;100845.38;5094596;28;20027;-75
2023/08/31 00:24:53;;;;;;;2.15;1.20;;;;;;;13.57;100.00;100846.22;5089781;28;20249;-75
2023/08/31 00:27:20;;;;;;;3.75;1.08;;;;;;;13.57;100.00;100852.34;5078389;28;20455;-75
2023/08/31 00:29:49;;;;;;;1.55;0.75;;;;;;;13.57;100.00;100841.81;5083989;28;20066;-75
2023/08/31 00:32:15;;;;;;;2.15;1.15;;;;;;;13.58;100.00;100840.03;5078208;28;20366;-75
2023/08/31 00:34:40;;;;;;;1.60;1.13;;;;;;;13.59;100.00;100832.06;5086689;28;20044;-75
2023/08/31 00:37:05;;;;;;;3.42;1.00;;;;;;;13.58;100.00;100830.34;5076859;28;20299;-75
2023/08/31 00:39:33;;;;;;;2.70;1.30;;;;;;;13.58;100.00;100826.88;5094553;28;20040;-75
2023/08/31 00:41:59;;;;;;;1.92;1.10;;;;;;;13.58;100.00;100821.59;5095538;28;20273;-75
2023/08/31 00:44:24;;;;;;;2.08;1.13;;;;;;;13.57;100.00;100823.41;5075491;28;20292;-75
2023/08/31 00:46:49;;;;;;;2.42;1.00;;;;;;;13.57;100.00;100831.28;5091763;28;20028;-75
2023/08/31 00:49:15;;;;;;;1.35;1.10;;;;;;;13.57;100.00;100826.03;5073843;28;20040;-75
2023/08/31 00:51:41;;;;;;;0.77;0.77;;;;;;;13.56;100.00;100832.22;5074389;28;20036;-74
2023/08/31 00:54:06;;;;;;;1.73;0.80;;;;;;;13.55;100.00;100830.53;5074219;28;20321;-74
2023/08/31 00:56:32;;;;;;;0.93;0.68;;;;;;;13.54;100.00;100833.25;5074846;28;20407;-74
2023/08/31 00:58:57;;;;;;;1.85;0.70;;;;;;;13.52;100.00;100828.06;5074594;28;20618;-74
2023/08/31 01:04:58;;;;;;;1.52;0.75;;;;;;;13.48;100.00;100821.25;4910317;28;20047;-76
2023/08/31 01:08:08;;;;;;;1.30;0.70;;;;;;;13.45;100.00;100813.53;5083522;28;20102;-76
2023/08/31 01:10:51;;;;;;;1.88;0.70;;;;;;;13.43;100.00;100823.28;5064350;28;20348;-76
2023/08/31 01:13:21;;;;;;;0.70;0.70;;;;;;;13.40;100.00;100826.91;5073718;28;20036;-76
2023/08/31 01:15:53;;;;;;;2.30;0.70;;;;;;;13.38;100.00;100825.31;5074177;28;20236;-76
2023/08/31 01:18:24;;;;;;;0.60;0.60;;;;;;;13.36;100.00;100825.38;5073218;28;20029;-76
2023/08/31 01:21:06;;;;;;;1.80;0.70;;;;;;;13.34;100.00;100826.41;5074364;28;20079;-76
2023/08/31 01:23:54;;;;;;;0.73;0.73;;;;;;;13.32;100.00;100823.00;5074304;28;20055;-76
2023/08/31 01:26:20;;;;;;;1.40;0.80;;;;;;;13.31;100.00;100816.88;5073578;28;20036;-76
2023/08/31 01:28:50;;;;;;;1.10;0.57;;;;;;;13.31;100.00;100829.19;5073626;28;20036;-76
2023/08/31 01:31:15;;;;;;;1.90;0.70;;;;;;;13.29;100.00;100828.38;5074094;28;20032;-76
2023/08/31 01:33:41;;;;;;;1.25;0.70;;;;;;;13.28;100.00;100824.91;5056364;28;20028;-76
2023/08/31 01:36:17;;;;;;;2.35;0.80;;;;;;;13.28;100.00;100817.03;5091702;28;20211;-76
2023/08/31 01:38:45;;;;;;;0.77;0.60;;;;;;;13.27;100.00;100824.97;5093510;28;20089;-76
2023/08/31 01:41:14;;;;;;;1.63;0.90;;;;;;;13.27;100.00;100819.72;5086642;28;20093;-76
2023/08/31 01:43:40;;;;;;;0.80;0.70;;;;;;;13.26;100.00;100834.63;5074209;28;20253;-76
2023/08/31 01:46:07;;;;;;;1.05;0.95;;;;;;;13.22;100.00;100848.88;5082585;28;20440;-76
2023/08/31 01:48:38;;;;;;;2.42;1.00;;;;;;;13.17;99.47;100848.25;5093894;28;20046;-76
2023/08/31 01:51:03;;;;;;;2.17;0.95;;;;;;;13.13;99.85;100839.69;5094104;28;20040;-76
2023/08/31 01:53:29;;;;;;;2.03;1.10;;;;;;;13.13;100.00;100837.03;5093833;28;20040;-76
2023/08/31 01:55:54;;;;;;;1.42;1.00;;;;;;;13.13;100.00;100838.84;5094227;28;20082;-76
2023/08/31 01:58:19;;;;;;;2.30;1.00;;;;;;;13.12;100.00;100830.09;5066355;28;20032;-76
2023/08/31 02:00:45;;;;;;;3.13;1.00;;;;;;;13.14;100.00;100836.13;5074455;28;20223;-76
2023/08/31 02:03:11;;;;;;;3.78;1.50;;;;;;;13.15;100.00;100839.59;5076927;28;20124;-76
2023/08/31 02:05:36;;;;;;;1.15;1.00;;;;;;;13.15;100.00;100836.97;5077025;28;20058;-76
2023/08/31 02:08:02;;;;;;;2.28;1.00;;;;;;;13.13;100.00;100834.41;5093202;28;20063;-76
2023/08/31 02:10:29;;;;;;;1.75;1.00;;;;;;;13.15;100.00;100839.59;5096318;28;20081;-76
2023/08/31 02:12:54;;;;;;;1.45;1.20;;;;;;;13.14;100.00;100846.66;5096727;28;20323;-76
2023/08/31 02:15:20;;;;;;;1.38;1.27;;;;;;;13.14;100.00;100836.13;5096205;28;20043;-76
2023/08/31 02:17:45;;;;;;;1.52;1.00;;;;;;;13.13;100.00;100837.03;5097671;28;20317;-76
2023/08/31 02:20:11;;;;;;;1.63;1.20;;;;;;;13.14;100.00;100833.50;5097100;28;20067;-76
2023/08/31 02:22:36;;;;;;;2.20;1.23;;;;;;;13.14;100.00;100833.50;5096822;28;20040;-76
2023/08/31 02:25:02;;;;;;;1.50;1.15;;;;;;;13.15;100.00;100832.59;5096666;28;20024;-76
2023/08/31 02:27:28;;;;;;;2.22;1.25;;;;;;;13.13;100.00;100826.53;5096948;28;20034;-76
2023/08/31 02:29:53;;;;;;;2.55;1.35;;;;;;;13.15;100.00;100823.81;5080261;28;20345;-76
2023/08/31 02:32:19;;;;;;;1.65;1.20;;;;;;;13.14;100.00;100838.75;5076502;28;20044;-76
2023/08/31 02:34:45;;;;;;;2.15;1.30;;;;;;;13.12;100.00;100831.91;5083240;28;20066;-76
2023/08/31 02:37:10;;;;;;;1.98;1.20;;;;;;;13.11;100.00;100831.03;5085714;28;20063;-76
2023/08/31 02:39:35;;;;;;;1.42;1.30;;;;;;;13.10;100.00;100833.72;5096839;28;20043;-76
2023/08/31 02:42:01;;;;;;;3.03;1.42;;;;;;;13.10;100.00;100831.09;5097453;28;20036;-76
2023/08/31 02:44:26;;;;;;;2.97;1.40;;;;;;;13.09;100.00;100829.41;5097114;28;20035;-76
2023/08/31 02:46:52;;;;;;;4.03;1.40;;;;;;;13.08;100.00;100831.19;5096781;28;20036;-76
2023/08/31 02:49:17;;;;;;;1.50;1.40;;;;;;;13.05;100.00;100829.56;5096416;28;20099;-76
2023/08/31 02:51:42;;;;;;;2.63;1.30;;;;;;;13.05;100.00;100829.56;5097141;28;20036;-76
2023/08/31 02:54:08;;;;;;;1.40;1.30;;;;;;;13.03;100.00;100838.47;5096753;28;20074;-76
2023/08/31 02:56:33;;;;;;;1.40;1.30;;;;;;;13.01;100.00;100835.91;5096593;28;20046;-76
2023/08/31 02:58:59;;;;;;;3.78;1.55;;;;;;;13.00;100.00;100828.94;5097584;28;20032;-75
2023/08/31 03:01:24;;;;;;;3.92;1.55;;;;;;;13.01;100.00;100829.81;5096404;28;20142;-76
2023/08/31 03:03:50;;;;;;;1.27;1.17;;;;;;;12.99;100.00;100834.31;5096446;28;20032;-76
2023/08/31 03:06:15;;;;;;;2.13;1.48;;;;;;;12.97;100.00;100833.50;5095491;28;20124;-76
2023/08/31 03:08:41;;;;;;;1.33;1.13;;;;;;;12.98;100.00;100836.06;5095434;28;20024;-76
2023/08/31 03:11:06;;;;;;;1.52;1.30;;;;;;;12.98;100.00;100836.06;5095904;28;20052;-76
2023/08/31 03:13:32;;;;;;;1.90;1.38;;;;;;;12.97;100.00;100831.75;5094300;28;20031;-76
2023/08/31 03:15:59;;;;;;;3.47;1.55;;;;;;;12.96;100.00;100818.69;5095792;28;20040;-76
2023/08/31 03:18:24;;;;;;;2.70;1.40;;;;;;;12.96;100.00;100823.94;5094688;28;20053;-76
2023/08/31 03:20:49;;;;;;;1.58;1.30;;;;;;;12.95;100.00;100814.34;5095563;28;20122;-76
2023/08/31 03:23:15;;;;;;;2.45;1.42;;;;;;;12.95;100.00;100820.47;5094982;28;20107;-76
2023/08/31 03:25:41;;;;;;;1.60;1.30;;;;;;;12.94;100.00;100816.13;5095281;28;20190;-76
2023/08/31 03:28:06;;;;;;;2.50;1.42;;;;;;;12.93;100.00;100818.81;5094765;28;20038;-76
2023/08/31 03:30:32;;;;;;;2.38;1.00;;;;;;;12.93;100.00;100818.81;5094692;28;20036;-76
2023/08/31 03:32:57;;;;;;;3.28;1.45;;;;;;;12.93;100.00;100821.44;5095387;28;20331;-76
2023/08/31 03:35:26;;;;;;;4.63;1.40;;;;;;;12.91;100.00;100821.53;5081261;28;20059;-76
2023/08/31 03:37:52;;;;;;;1.10;1.00;;;;;;;12.93;100.00;100834.59;5089331;28;20107;-76
2023/08/31 03:40:18;;;;;;;1.27;1.05;;;;;;;12.92;100.00;100828.50;5094477;28;20039;-76
2023/08/31 03:42:43;;;;;;;4.28;1.30;;;;;;;12.92;100.00;100831.13;5095347;28;20038;-76
2023/08/31 03:45:09;;;;;;;2.15;1.20;;;;;;;12.91;100.00;100834.66;5075971;28;20051;-76
2023/08/31 03:47:34;;;;;;;4.72;1.13;;;;;;;12.90;100.00;100840.88;5084608;28;20537;-76
2023/08/31 03:50:00;;;;;;;3.83;1.50;;;;;;;12.90;100.00;100840.00;5075691;28;20102;-76
2023/08/31 03:52:25;;;;;;;3.30;1.60;;;;;;;12.90;100.00;100843.50;5076398;28;20028;-76
2023/08/31 03:54:52;;;;;;;1.70;1.15;;;;;;;12.90;100.00;100840.00;5088232;28;20036;-76
2023/08/31 03:57:17;;;;;;;1.73;1.13;;;;;;;12.91;100.00;100836.44;5083711;28;20028;-76
2023/08/31 03:59:43;;;;;;;2.58;1.10;;;;;;;12.90;100.00;100845.25;5087023;28;20311;-76
2023/08/31 04:02:08;;;;;;;2.17;0.90;;;;;;;12.91;100.00;100844.34;5081372;28;20095;-76
2023/08/31 04:04:34;;;;;;;4.32;1.30;;;;;;;12.90;100.00;100843.50;5089378;28;20077;-76
2023/08/31 04:06:59;;;;;;;2.97;1.30;;;;;;;12.89;100.00;100847.03;5093508;28;20036;-76
2023/08/31 04:09:25;;;;;;;2.40;1.55;;;;;;;12.90;100.00;100847.88;5073894;28;20024;-76
2023/08/31 04:11:50;;;;;;;3.25;1.30;;;;;;;12.89;100.00;100849.66;5074591;28;20048;-76
2023/08/31 04:14:18;;;;;;;1.75;1.15;;;;;;;12.89;100.00;100849.66;5074147;28;20099;-76
2023/08/31 04:16:43;;;;;;;1.42;1.08;;;;;;;12.88;100.00;100850.63;5074070;28;20298;-76
2023/08/31 04:19:09;;;;;;;1.95;1.20;;;;;;;12.86;100.00;100853.31;5075327;28;20036;-76
2023/08/31 04:21:34;;;;;;;1.48;1.30;;;;;;;12.88;100.00;100858.50;5094345;28;20374;-76
2023/08/31 04:24:00;;;;;;;1.38;1.00;;;;;;;12.87;100.00;100855.00;5095187;28;20227;-76
2023/08/31 04:26:25;;;;;;;1.98;1.10;;;;;;;12.87;100.00;100860.25;5094649;28;20035;-76
2023/08/31 04:28:51;;;;;;;2.53;1.20;;;;;;;12.88;100.00;100858.50;5094896;28;20095;-76
2023/08/31 04:31:17;;;;;;;1.33;1.00;;;;;;;12.87;100.00;100860.25;5094573;28;20224;-76
2023/08/31 04:33:42;;;;;;;0.82;0.82;;;;;;;12.89;100.00;100859.34;5094929;28;20227;-76
2023/08/31 04:36:07;;;;;;;0.80;0.80;;;;;;;12.87;100.00;100860.25;5076583;28;20126;-76
2023/08/31 04:38:37;;;;;;;1.95;1.13;;;;;;;12.87;100.00;100862.03;5094444;28;20032;-76
2023/08/31 04:41:03;;;;;;;3.60;1.08;;;;;;;12.87;100.00;100860.25;5095181;28;20047;-76
2023/08/31 04:43:29;;;;;;;2.20;1.20;;;;;;;12.87;100.00;100865.50;5094479;28;20036;-76
2023/08/31 04:45:55;;;;;;;2.30;1.00;;;;;;;12.86;100.00;100871.72;5094871;28;20036;-76
2023/08/31 04:48:21;;;;;;;2.63;1.00;;;;;;;12.87;100.00;100869.94;5093937;28;20040;-76
2023/08/31 04:50:46;;;;;;;2.30;1.00;;;;;;;12.87;100.00;100876.03;5093780;28;20066;-76
2023/08/31 04:53:12;;;;;;;4.07;1.10;;;;;;;12.87;100.00;100870.75;5094780;28;20100;-76
2023/08/31 04:55:40;;;;;;;2.28;0.93;;;;;;;12.87;100.00;100885.69;5094102;28;20040;-76
2023/08/31 04:58:05;;;;;;;1.80;1.02;;;;;;;12.86;100.00;100883.97;5074528;28;20395;-76
2023/08/31 05:00:31;;;;;;;3.90;0.90;;;;;;;12.87;100.00;100890.94;5074291;28;20198;-76
2023/08/31 05:02:57;;;;;;;3.15;1.13;;;;;;;12.86;100.00;100890.09;5080612;28;20031;-76
2023/08/31 05:05:22;;;;;;;1.60;0.95;;;;;;;12.85;100.00;100885.75;5094030;28;20090;-76
2023/08/31 05:07:47;;;;;;;1.90;1.00;;;;;;;12.86;100.00;100895.38;5093862;28;20170;-76
2023/08/31 05:10:13;;;;;;;2.30;1.10;;;;;;;12.86;100.00;100895.38;5091168;28;20039;-76
2023/08/31 05:12:39;;;;;;;2.85;1.10;;;;;;;12.86;100.00;100900.63;5084743;28;20343;-76
2023/08/31 05:15:05;;;;;;;2.20;1.02;;;;;;;12.86;100.00;100899.75;5094810;28;20096;-76
2023/08/31 05:17:31;;;;;;;2.80;1.10;;;;;;;12.86;100.00;100907.63;5077052;28;20251;-76
2023/08/31 05:19:56;;;;;;;1.80;0.90;;;;;;;12.86;100.00;100913.75;5089031;28;20036;-76
2023/08/31 05:22:24;;;;;;;1.75;0.95;;;;;;;12.86;100.00;100905.00;5074738;28;20079;-76
2023/08/31 05:24:49;;;;;;;1.70;0.90;;;;;;;12.86;100.00;100905.88;5093841;28;20069;-76
2023/08/31 05:27:14;;;;;;;5.18;1.17;;;;;;;12.86;100.00;100911.13;5094374;28;20047;-76
2023/08/31 05:29:40;;;;;;;1.58;0.98;;;;;;;12.87;100.00;100911.97;5088159;28;20047;-76
2023/08/31 05:32:06;;;;;;;4.03;1.20;;;;;;;12.87;100.00;100911.97;5088993;28;20040;-76
2023/08/31 05:34:34;;;;;;;1.55;0.95;;;;;;;12.86;100.00;100913.75;5082514;28;20032;-76
2023/08/31 05:37:00;;;;;;;3.20;1.08;;;;;;;12.87;100.00;100918.06;5097178;28;20297;-75
2023/08/31 05:39:25;;;;;;;3.88;1.15;;;;;;;12.87;100.00;100918.06;5097150;28;20093;-75
2023/08/31 05:41:50;;;;;;;1.13;0.80;;;;;;;12.89;100.00;100919.78;5097844;28;20047;-76
2023/08/31 05:44:16;;;;;;;2.15;0.93;;;;;;;12.89;100.00;100919.78;5097851;28;20023;-76
2023/08/31 05:46:41;;;;;;;1.52;0.90;;;;;;;12.86;100.00;100921.66;5091942;28;20028;-76
2023/08/31 05:49:07;;;;;;;4.10;1.13;;;;;;;12.89;100.00;100932.94;5087960;28;20031;-76
2023/08/31 05:51:33;;;;;;;1.63;0.70;;;;;;;12.89;100.00;100932.94;5086542;28;20222;-76
2023/08/31 05:53:58;;;;;;;3.35;0.90;;;;;;;12.89;100.00;100935.56;5081918;28;20024;-76
2023/08/31 05:56:23;;;;;;;1.42;0.80;;;;;;;12.89;100.00;100936.41;5095434;28;20269;-76
2023/08/31 05:58:50;;;;;;;1.73;0.90;;;;;;;12.89;100.00;100944.28;5089900;28;20043;-76
2023/08/31 06:01:15;;;;;;;1.48;0.95;;;;;;;12.90;100.00;100938.13;5086717;28;20034;-76
2023/08/31 06:03:41;;;;;;;6.78;1.15;;;;;;;12.90;100.00;100942.50;5087992;28;20286;-76
2023/08/31 06:06:06;;;;;;;2.20;1.20;;;;;;;12.90;100.00;100937.25;5088804;28;20068;-76
2023/08/31 06:08:32;;;;;;;2.40;1.17;;;;;;;12.90;100.00;100943.38;5086132;28;20032;-76
2023/08/31 06:10:58;;;;;;;1.25;0.90;;;;;;;12.91;100.00;100946.84;5097669;28;20036;-76
2023/08/31 06:13:23;;;;;;;1.95;0.93;;;;;;;12.92;100.00;100944.16;5087080;28;20051;-76
2023/08/31 06:15:49;;;;;;;1.27;0.90;;;;;;;12.93;100.00;100945.00;5092607;28;20316;-76
2023/08/31 06:18:14;;;;;;;3.25;0.95;;;;;;;12.93;100.00;100940.56;5086805;28;20025;-76
2023/08/31 06:20:40;;;;;;;1.67;1.00;;;;;;;12.95;100.00;100943.13;5093067;28;20130;-76
2023/08/31 06:23:05;;;;;;;2.10;0.70;;;;;;;12.96;100.00;100950.09;5097329;28;20043;-76
2023/08/31 06:25:31;;;;;;;2.50;1.00;;;;;;;12.95;100.00;100946.63;5096423;28;20020;-76
2023/08/31 06:27:57;;;;;;;1.02;0.93;;;;;;;12.97;100.00;100952.66;5097420;28;20196;-76
2023/08/31 06:30:23;;;;;;;1.73;0.82;;;;;;;12.98;100.00;100950.88;5097189;28;20124;-76
2023/08/31 06:32:50;;;;;;;5.15;1.00;;;;;;;12.99;100.00;100948.19;5097310;28;20095;-76
2023/08/31 06:35:15;;;;;;;1.23;0.73;;;;;;;13.00;100.00;100951.66;5096994;28;20032;-76
2023/08/31 06:37:41;;;;;;;5.88;1.13;;;;;;;13.02;100.00;100945.41;5087746;28;20109;-76
2023/08/31 06:40:10;;;;;;;0.70;0.63;;;;;;;13.03;100.00;100957.63;5085121;28;20024;-76
2023/08/31 06:42:35;;;;;;;;;;;;;;;13.04;100.00;100958.47;5086260;28;20059;-76
2023/08/31 06:45:02;;;;;;;2.53;1.15;;;;;;;13.05;100.00;100957.53;5085928;28;19915;-76
2023/08/31 06:47:28;;;;;;;1.98;0.98;;;;;;;13.06;100.00;100968.00;5080455;28;20028;-76
2023/08/31 06:49:53;;;;;;;1.33;1.08;;;;;;;13.08;100.00;100970.53;5083303;28;20620;-76
2023/08/31 06:52:18;;;;;;;5.22;1.17;;;;;;;13.09;100.00;100958.25;5084960;28;20031;-76
2023/08/31 06:54:44;;;;;;;2.00;0.80;;;;;;;13.10;100.00;100966.06;5089416;28;20270;-76
2023/08/31 06:57:09;;;;;;;2.58;1.17;;;;;;;13.13;100.00;100973.78;5080878;28;20035;-76
2023/08/31 06:59:34;;;;;;;1.15;0.80;;;;;;;13.13;100.00;100971.16;5082304;28;20044;-76
2023/08/31 07:02:00;;;;;;;1.63;0.80;;;;;;;13.15;100.00;100968.44;5084680;28;20043;-76
2023/08/31 07:04:27;;;;;;;2.30;1.00;;;;;;;13.17;100.00;100971.84;5081587;28;21014;-76
2023/08/31 07:06:52;;;;;;;4.18;0.82;;;;;;;13.19;100.00;100981.38;5069757;28;20331;-76
2023/08/31 07:09:17;;;;;;;1.45;1.00;;;;;;;13.20;100.00;100977.81;5087303;28;20453;-76
2023/08/31 07:11:43;;;;;;;3.22;0.98;;;;;;;13.21;100.00;100976.91;5081737;28;20085;-76
2023/08/31 07:14:08;;;;;;;1.17;0.90;;;;;;;13.23;100.00;100974.19;5081470;28;20020;-76
2023/08/31 07:16:34;;;;;;;2.40;1.00;;;;;;;13.23;100.00;100980.28;5085422;28;20047;-76
2023/08/31 07:18:59;;;;;;;1.10;0.90;;;;;;;13.27;100.00;100986.25;5089481;28;20031;-76
2023/08/31 07:21:24;;;;;;;1.05;0.90;;;;;;;13.29;100.00;100983.56;5088271;28;20281;-76
2023/08/31 07:23:50;;;;;;;1.73;1.00;;;;;;;13.29;100.00;100988.81;5084420;28;20379;-76
2023/08/31 07:26:16;;;;;;;2.45;1.20;;;;;;;13.32;100.00;100986.06;5081004;28;20270;-76
2023/08/31 07:28:41;;;;;;;2.70;1.00;;;;;;;13.35;100.00;100980.63;5083854;28;20036;-76
2023/08/31 07:31:07;;;;;;;3.85;1.10;;;;;;;13.36;100.00;100992.88;5090098;28;20031;-76
2023/08/31 07:33:34;;;;;;;7.38;0.93;;;;;;;13.39;100.00;100992.72;5095638;28;20060;-76
2023/08/31 07:36:00;;;;;;;3.65;1.20;;;;;;;13.42;100.00;101003.97;5095634;28;20043;-76
2023/08/31 07:38:27;;;;;;;7.75;1.70;;;;;;;13.46;100.00;100998.53;5095175;28;20036;-76
2023/08/31 07:40:53;;;;;;;1.70;1.10;;;;;;;13.47;100.00;100998.44;5096039;28;20538;-76
2023/08/31 07:43:18;;;;;;;1.52;1.00;;;;;;;13.50;100.00;101003.56;5095443;28;20055;-76
2023/08/31 07:45:44;;;;;;;5.22;1.60;;;;;;;13.53;100.00;100999.91;5094366;28;20036;-76
2023/08/31 07:48:09;;;;;;;4.15;1.30;;;;;;;13.55;100.00;101004.19;5095540;28;20072;-76
2023/08/31 07:50:34;;;;;;;4.25;1.75;;;;;;;13.56;99.77;101003.25;5093512;28;20488;-76
2023/08/31 07:53:00;;;;;;;6.32;1.00;;;;;;;13.58;99.76;101009.28;5092355;28;20438;-76
2023/08/31 07:55:25;;;;;;;1.13;0.77;;;;;;;13.59;99.39;101005.72;5093364;28;20081;-76
2023/08/31 07:57:51;;;;;;;2.15;0.73;;;;;;;13.61;98.75;101003.88;5095096;28;20044;-76
2023/08/31 08:00:16;;;;;;;2.88;0.90;;;;;;;13.62;98.27;101016.09;5090585;28;20731;-75
2023/08/31 08:02:42;;;;;;;2.50;1.00;;;;;;;13.63;97.94;101014.31;5080790;28;20274;-76
2023/08/31 08:05:07;;;;;;;0.98;0.60;;;;;;;13.65;97.76;101022.16;5083599;28;20412;-76
2023/08/31 08:07:33;;;;;;;4.05;0.80;;;;;;;13.66;97.09;101008.91;5079665;28;20036;-76
2023/08/31 08:09:59;;;;;;;3.17;0.90;;;;;;;13.70;97.33;101022.72;5083056;28;20032;-76
2023/08/31 08:12:25;;;;;;;2.80;0.90;;;;;;;13.71;97.04;101027.09;5082868;28;20202;-76
2023/08/31 08:14:50;;;;;;;2.42;1.00;;;;;;;13.73;96.90;101019.97;5079239;28;20028;-76
2023/08/31 08:17:16;;;;;;;2.35;0.70;;;;;;;13.74;96.98;101022.50;5083444;28;20298;-76
2023/08/31 08:19:41;;;;;;;1.48;0.88;;;;;;;13.76;96.80;101033.81;5081270;28;20036;-76
2023/08/31 08:22:07;;;;;;;2.33;0.77;;;;;;;13.77;96.33;101035.53;5072788;28;20044;-76
2023/08/31 08:24:32;;;;;;;1.38;0.70;;;;;;;13.78;96.09;101031.94;5079917;28;20028;-76
2023/08/31 08:26:57;;;;;;;1.00;0.65;;;;;;;13.81;96.38;101039.69;5086816;28;20242;-76
2023/08/31 08:29:23;;;;;;;1.83;0.55;;;;;;;13.82;96.39;101038.78;5091570;28;20286;-76
2023/08/31 08:31:48;;;;;;;1.58;0.70;;;;;;;13.84;96.10;101038.69;5088879;28;20094;-76
2023/08/31 08:34:13;;;;;;;2.45;0.98;;;;;;;13.85;95.87;101047.44;5089264;28;20366;-76
2023/08/31 08:36:39;;;;;;;1.23;0.80;;;;;;;13.86;95.87;101044.75;5087859;28;20268;-76
2023/08/31 08:39:04;;;;;;;3.17;0.80;;;;;;;13.88;96.10;101047.28;5088054;28;20023;-76
2023/08/31 08:41:32;;;;;;;1.40;0.85;;;;;;;13.88;96.02;101045.50;5089767;28;20053;-76
2023/08/31 08:44:03;;;;;;;1.35;0.73;;;;;;;13.90;95.51;101048.91;5084658;28;20032;-76
2023/08/31 08:46:31;;;;;;;1.23;0.75;;;;;;;13.92;95.31;101054.09;5091536;28;20331;-76
2023/08/31 08:48:59;;;;;;;3.85;1.23;;;;;;;13.94;95.25;101054.88;5085886;28;20223;-76
2023/08/31 08:51:24;;;;;;;2.72;0.82;;;;;;;13.96;94.96;101055.66;5083575;28;20024;-76
2023/08/31 08:53:51;;;;;;;4.55;1.23;;;;;;;13.98;94.46;101059.03;5082204;28;20389;-76
2023/08/31 08:56:16;;;;;;;2.05;0.85;;;;;;;13.99;94.06;101071.28;5088751;28;20016;-76
2023/08/31 08:58:42;;;;;;;2.70;0.77;;;;;;;14.00;93.76;101063.28;5091534;28;20059;-76
2023/08/31 09:01:08;;;;;;;1.23;0.80;;;;;;;14.02;94.14;101065.84;5093025;28;20028;-76
2023/08/31 09:03:35;;;;;;;2.97;1.10;;;;;;;14.04;93.93;101068.41;5090800;28;20063;-76
2023/08/31 09:06:04;;;;;;;1.27;0.90;;;;;;;14.05;93.63;101080.66;5091756;28;20148;-76
2023/08/31 09:08:29;;;;;;;0.95;0.70;;;;;;;14.08;93.31;101069.94;5079596;28;20034;-76
2023/08/31 09:10:57;;;;;;;4.38;0.65;;;;;;;14.10;93.18;101068.06;5090213;28;20063;-76
2023/08/31 09:13:27;;;;;;;4.67;0.97;;;;;;;14.13;93.18;101068.78;5094557;28;20121;-76
2023/08/31 09:15:52;;;;;;;1.77;0.65;;;;;;;14.16;92.36;101073.06;5089843;28;20365;-76
2023/08/31 09:18:25;;;;;;;3.15;0.80;;;;;;;14.19;92.07;101078.16;5072581;28;20024;-76
2023/08/31 09:20:51;;;;;;;3.50;0.93;;;;;;;14.21;92.29;101078.94;5092461;28;20331;-76
2023/08/31 09:23:17;;;;;;;4.43;0.90;;;;;;;14.24;91.86;101076.13;5091073;28;20038;-76
2023/08/31 09:25:53;;;;;;;4.38;0.95;;;;;;;14.28;91.52;101074.19;5081770;28;20074;-76
2023/08/31 09:28:26;;;;;;;2.50;0.70;;;;;;;14.29;91.39;101083.78;5088425;28;20369;-76
2023/08/31 09:30:53;;;;;;;0.98;0.60;;;;;;;14.30;91.17;101083.72;5087558;28;20039;-76
2023/08/31 09:33:20;;;;;;;1.85;0.80;;;;;;;14.32;91.36;101078.38;5090187;28;20043;-76
2023/08/31 09:35:51;;;;;;;1.85;0.85;;;;;;;14.33;91.19;101080.06;5089863;28;20081;-76
2023/08/31 09:38:17;;;;;;;1.20;0.70;;;;;;;14.36;91.53;101093.94;5086193;28;20335;-76
2023/08/31 09:40:43;;;;;;;2.38;0.88;;;;;;;14.38;90.90;101083.31;5074292;28;20028;-75
2023/08/31 09:43:08;;;;;;;2.05;0.82;;;;;;;14.39;90.64;101087.66;5091932;28;20208;-76
2023/08/31 09:45:34;;;;;;;2.30;0.80;;;;;;;14.41;90.75;101080.53;5093306;28;20066;-76
2023/08/31 09:48:02;;;;;;;2.55;1.13;;;;;;;14.43;90.23;101093.63;5088561;28;20334;-76
2023/08/31 09:50:29;;;;;;;2.17;0.90;;;;;;;14.46;89.83;101085.53;5087989;28;20048;-76
2023/08/31 09:52:57;;;;;;;2.22;0.77;;;;;;;14.49;89.85;101083.59;5091456;28;20047;-76
2023/08/31 09:55:27;;;;;;;2.95;1.10;;;;;;;14.50;89.69;101084.47;5088835;28;20040;-76
2023/08/31 09:57:56;;;;;;;1.05;0.80;;;;;;;14.52;89.55;101086.06;5086519;28;20063;-76
2023/08/31 10:00:22;;;;;;;1.05;0.50;;;;;;;14.54;89.15;101083.34;5084965;28;20085;-76
2023/08/31 10:02:49;;;;;;;1.52;0.90;;;;;;;14.56;89.45;101092.88;5085090;28;20036;-76
2023/08/31 10:05:15;;;;;;;1.30;0.80;;;;;;;14.57;89.08;101091.06;5093794;28;20032;-76
2023/08/31 10:07:42;;;;;;;2.22;0.77;;;;;;;14.59;88.70;101091.91;5091328;28;20036;-76
2023/08/31 10:10:08;;;;;;;1.20;0.70;;;;;;;14.59;88.83;101099.81;5090571;28;20032;-76
2023/08/31 10:12:36;;;;;;;2.28;0.65;;;;;;;14.59;88.76;101090.09;5095395;28;20399;-76
2023/08/31 10:15:01;;;;;;;1.95;0.80;;;;;;;14.60;88.35;101093.59;5096371;28;20107;-76
2023/08/31 10:17:27;;;;;;;5.05;1.05;;;;;;;14.61;87.85;101102.34;5092567;28;20324;-76
2023/08/31 10:19:54;;;;;;;1.40;0.77;;;;;;;14.61;87.63;101094.44;5095596;28;20027;-76
2023/08/31 10:22:19;;;;;;;1.40;0.80;;;;;;;14.61;87.52;101091.78;5091710;28;20052;-76
2023/08/31 10:25:03;;;;;;;0.80;0.60;;;;;;;14.62;87.73;101093.50;5095453;28;20036;-76
2023/08/31 10:27:36;;;;;;;1.05;0.60;;;;;;;14.63;87.41;101097.88;5091093;28;20219;-76
2023/08/31 10:30:26;;;;;;;2.63;0.85;;;;;;;14.65;87.35;101098.63;5093533;28;20039;-76
2023/08/31 10:33:07;;;;;;;3.25;0.75;;;;;;;14.65;87.12;101094.19;5089009;28;20043;-76
2023/08/31 10:35:47;;;;;;;1.15;0.70;;;;;;;14.67;87.11;101102.88;5093003;28;20036;-76
2023/08/31 10:38:27;;;;;;;1.05;0.70;;;;;;;14.68;87.20;101101.06;5090348;28;20393;-76
2023/08/31 10:41:07;;;;;;;1.55;0.70;;;;;;;14.69;87.40;101106.28;5091775;28;20250;-76
2023/08/31 10:43:53;;;;;;;2.85;0.80;;;;;;;14.70;87.24;101102.72;5091778;28;20035;-76
2023/08/31 10:46:35;;;;;;;2.45;0.90;;;;;;;14.69;86.62;101098.38;5090240;28;20031;-76
2023/08/31 10:49:10;;;;;;;1.35;0.88;;;;;;;14.70;86.21;101104.50;5085264;28;20078;-76
2023/08/31 10:51:37;;;;;;;1.67;0.88;;;;;;;14.71;86.56;101100.91;5084014;28;20335;-76
2023/08/31 10:54:10;;;;;;;3.35;0.90;;;;;;;14.73;86.48;101099.06;5085310;28;20410;-76
2023/08/31 10:56:55;;;;;;;4.65;0.90;;;;;;;14.76;85.70;101110.28;5087084;28;20579;-76
2023/08/31 10:59:22;;;;;;;4.70;0.80;;;;;;;14.81;86.07;101096.00;5084307;28;20335;-76
2023/08/31 11:02:02;;;;;;;3.70;1.17;;;;;;;14.83;85.62;101102.91;5088670;28;20267;-76
2023/08/31 11:04:29;;;;;;;1.90;0.70;;;;;;;14.84;85.60;101093.19;5083778;28;20253;-76
2023/08/31 11:07:14;;;;;;;4.10;1.10;;;;;;;14.87;85.82;101098.31;5090590;28;20036;-76
2023/08/31 11:09:40;;;;;;;0.90;0.73;;;;;;;14.88;85.53;101100.88;5086529;28;20393;-76
2023/08/31 11:12:07;;;;;;;1.40;0.85;;;;;;;14.91;85.72;101102.47;5067240;28;20042;-76
2023/08/31 11:14:32;;;;;;;3.13;1.10;;;;;;;14.93;85.60;101104.09;5086817;28;20074;-76
2023/08/31 11:16:59;;;;;;;1.10;0.75;;;;;;;14.96;85.98;101106.56;5085177;28;20032;-76
2023/08/31 11:19:25;;;;;;;1.15;0.80;;;;;;;14.99;85.40;101108.19;5087149;28;20032;-76
2023/08/31 11:21:51;;;;;;;5.22;0.80;;;;;;;15.02;85.73;101104.53;5085914;28;20047;-76